sensor_id;sensor_type;location;lat;lon;timestamp;P1;durP1;ratioP1;P2;durP2;ratioP2
9140;SDS011;46330;50.822;7.126;2024-02-26T00:02:15;3.88;;;2.15;;
9140;SDS011;46330;50.822;7.126;2024-02-26T00:04:44;4.13;;;1.85;;
9140;SDS011;46330;50.822;7.126;2024-02-26T00:07:12;2.92;;;1.90;;
9140;SDS011;46330;50.822;7.126;2024-02-26T00:09:40;4.50;;;2.72;;
9140;SDS011;46330;50.822;7.126;2024-02-26T00:12:08;4.82;;;2.42;;
9140;SDS011;46330;50.822;7.126;2024-02-26T00:14:36;2.55;;;1.30;;
9140;SDS011;46330;50.822;7.126;2024-02-26T00:17:04;3.22;;;1.25;;
9140;SDS011;46330;50.822;7.126;2024-02-26T00:19:32;3.55;;;1.48;;
9140;SDS011;46330;50.822;7.126;2024-02-26T00:22:01;4.10;;;1.30;;
9140;SDS011;46330;50.822;7.126;2024-02-26T00:24:29;1.55;;;1.08;;
9140;SDS011;46330;50.822;7.126;2024-02-26T00:26:57;3.53;;;1.60;;
9140;SDS011;46330;50.822;7.126;2024-02-26T00:29:25;2.35;;;1.35;;
9140;SDS011;46330;50.822;7.126;2024-02-26T00:31:53;5.70;;;1.30;;
9140;SDS011;46330;50.822;7.126;2024-02-26T00:34:21;2.05;;;1.23;;
9140;SDS011;46330;50.822;7.126;2024-02-26T00:36:49;3.72;;;1.33;;
9140;SDS011;46330;50.822;7.126;2024-02-26T00:39:18;3.20;;;1.58;;
9140;SDS011;46330;50.822;7.126;2024-02-26T00:41:46;3.80;;;1.38;;
9140;SDS011;46330;50.822;7.126;2024-02-26T00:44:14;4.55;;;1.50;;
9140;SDS011;46330;50.822;7.126;2024-02-26T00:46:42;2.72;;;1.65;;
9140;SDS011;46330;50.822;7.126;2024-02-26T00:49:09;2.42;;;1.05;;
9140;SDS011;46330;50.822;7.126;2024-02-26T00:51:38;4.10;;;1.58;;
9140;SDS011;46330;50.822;7.126;2024-02-26T00:54:06;5.43;;;1.90;;
9140;SDS011;46330;50.822;7.126;2024-02-26T00:56:35;5.47;;;1.98;;
9140;SDS011;46330;50.822;7.126;2024-02-26T00:59:03;2.13;;;1.38;;
9140;SDS011;46330;50.822;7.126;2024-02-26T01:01:31;1.70;;;1.00;;
9140;SDS011;46330;50.822;7.126;2024-02-26T01:03:59;3.08;;;1.27;;
9140;SDS011;46330;50.822;7.126;2024-02-26T01:06:27;3.63;;;1.60;;
9140;SDS011;46330;50.822;7.126;2024-02-26T01:08:55;2.65;;;1.30;;
9140;SDS011;46330;50.822;7.126;2024-02-26T01:11:23;3.20;;;1.30;;
9140;SDS011;46330;50.822;7.126;2024-02-26T01:13:52;2.22;;;1.30;;
9140;SDS011;46330;50.822;7.126;2024-02-26T01:16:23;1.25;;;1.15;;
9140;SDS011;46330;50.822;7.126;2024-02-26T01:18:51;3.80;;;1.60;;
9140;SDS011;46330;50.822;7.126;2024-02-26T01:21:19;2.95;;;1.20;;
9140;SDS011;46330;50.822;7.126;2024-02-26T01:23:47;2.97;;;1.45;;
9140;SDS011;46330;50.822;7.126;2024-02-26T01:26:15;1.38;;;1.08;;
9140;SDS011;46330;50.822;7.126;2024-02-26T01:28:43;2.80;;;1.10;;
9140;SDS011;46330;50.822;7.126;2024-02-26T01:31:12;3.05;;;1.20;;
9140;SDS011;46330;50.822;7.126;2024-02-26T01:33:40;1.50;;;1.20;;
9140;SDS011;46330;50.822;7.126;2024-02-26T01:36:08;2.55;;;1.60;;
9140;SDS011;46330;50.822;7.126;2024-02-26T01:38:36;2.90;;;1.20;;
9140;SDS011;46330;50.822;7.126;2024-02-26T01:41:04;4.28;;;1.20;;
9140;SDS011;46330;50.822;7.126;2024-02-26T01:43:32;2.17;;;1.23;;
9140;SDS011;46330;50.822;7.126;2024-02-26T01:46:00;3.13;;;1.35;;
9140;SDS011;46330;50.822;7.126;2024-02-26T01:48:29;2.65;;;1.10;;
9140;SDS011;46330;50.822;7.126;2024-02-26T01:50:58;1.15;;;0.93;;
9140;SDS011;46330;50.822;7.126;2024-02-26T01:53:26;3.85;;;1.40;;
9140;SDS011;46330;50.822;7.126;2024-02-26T01:55:54;0.85;;;0.85;;
9140;SDS011;46330;50.822;7.126;2024-02-26T01:58:22;2.42;;;0.90;;
9140;SDS011;46330;50.822;7.126;2024-02-26T02:00:50;1.60;;;1.10;;
9140;SDS011;46330;50.822;7.126;2024-02-26T02:03:18;1.60;;;0.90;;
9140;SDS011;46330;50.822;7.126;2024-02-26T02:05:48;1.02;;;0.70;;
9140;SDS011;46330;50.822;7.126;2024-02-26T02:08:16;2.67;;;1.08;;
9140;SDS011;46330;50.822;7.126;2024-02-26T02:10:44;2.35;;;1.10;;
9140;SDS011;46330;50.822;7.126;2024-02-26T02:13:14;1.73;;;0.90;;
9140;SDS011;46330;50.822;7.126;2024-02-26T02:15:42;2.30;;;0.88;;
9140;SDS011;46330;50.822;7.126;2024-02-26T02:18:09;2.47;;;1.20;;
9140;SDS011;46330;50.822;7.126;2024-02-26T02:20:39;2.00;;;0.90;;
9140;SDS011;46330;50.822;7.126;2024-02-26T02:23:07;2.03;;;1.10;;
9140;SDS011;46330;50.822;7.126;2024-02-26T02:25:35;2.70;;;1.30;;
9140;SDS011;46330;50.822;7.126;2024-02-26T02:28:03;3.80;;;1.40;;
9140;SDS011;46330;50.822;7.126;2024-02-26T02:30:32;2.92;;;1.00;;
9140;SDS011;46330;50.822;7.126;2024-02-26T02:33:02;2.63;;;1.20;;
9140;SDS011;46330;50.822;7.126;2024-02-26T02:35:30;2.58;;;1.20;;
9140;SDS011;46330;50.822;7.126;2024-02-26T02:37:59;2.55;;;1.20;;
9140;SDS011;46330;50.822;7.126;2024-02-26T02:40:27;2.20;;;1.05;;
9140;SDS011;46330;50.822;7.126;2024-02-26T02:42:55;0.93;;;0.80;;
9140;SDS011;46330;50.822;7.126;2024-02-26T02:45:23;1.73;;;1.00;;
9140;SDS011;46330;50.822;7.126;2024-02-26T02:47:51;2.88;;;1.08;;
9140;SDS011;46330;50.822;7.126;2024-02-26T02:50:19;1.48;;;0.80;;
9140;SDS011;46330;50.822;7.126;2024-02-26T02:52:47;1.95;;;1.00;;
9140;SDS011;46330;50.822;7.126;2024-02-26T02:55:17;1.33;;;0.93;;
9140;SDS011;46330;50.822;7.126;2024-02-26T02:57:45;1.90;;;1.10;;
9140;SDS011;46330;50.822;7.126;2024-02-26T03:00:13;2.20;;;1.10;;
9140;SDS011;46330;50.822;7.126;2024-02-26T03:02:42;2.40;;;1.02;;
9140;SDS011;46330;50.822;7.126;2024-02-26T03:05:11;2.10;;;1.05;;
9140;SDS011;46330;50.822;7.126;2024-02-26T03:07:39;3.65;;;1.80;;
9140;SDS011;46330;50.822;7.126;2024-02-26T03:10:07;3.53;;;2.20;;
9140;SDS011;46330;50.822;7.126;2024-02-26T03:12:37;2.72;;;1.98;;
9140;SDS011;46330;50.822;7.126;2024-02-26T03:15:05;2.55;;;2.05;;
9140;SDS011;46330;50.822;7.126;2024-02-26T03:17:33;2.47;;;1.75;;
9140;SDS011;46330;50.822;7.126;2024-02-26T03:20:01;3.95;;;1.85;;
9140;SDS011;46330;50.822;7.126;2024-02-26T03:22:31;3.47;;;1.60;;
9140;SDS011;46330;50.822;7.126;2024-02-26T03:24:59;6.03;;;1.48;;
9140;SDS011;46330;50.822;7.126;2024-02-26T03:27:27;2.40;;;1.80;;
9140;SDS011;46330;50.822;7.126;2024-02-26T03:29:56;2.53;;;1.63;;
9140;SDS011;46330;50.822;7.126;2024-02-26T03:32:25;5.97;;;3.30;;
9140;SDS011;46330;50.822;7.126;2024-02-26T03:34:53;4.68;;;2.90;;
9140;SDS011;46330;50.822;7.126;2024-02-26T03:37:22;4.78;;;2.70;;
9140;SDS011;46330;50.822;7.126;2024-02-26T03:39:50;5.88;;;2.08;;
9140;SDS011;46330;50.822;7.126;2024-02-26T03:42:18;3.03;;;1.80;;
9140;SDS011;46330;50.822;7.126;2024-02-26T03:44:46;3.72;;;2.10;;
9140;SDS011;46330;50.822;7.126;2024-02-26T03:47:15;2.72;;;1.60;;
9140;SDS011;46330;50.822;7.126;2024-02-26T03:49:43;2.63;;;1.70;;
9140;SDS011;46330;50.822;7.126;2024-02-26T03:52:11;2.90;;;1.63;;
9140;SDS011;46330;50.822;7.126;2024-02-26T03:54:39;3.30;;;2.05;;
9140;SDS011;46330;50.822;7.126;2024-02-26T03:57:07;4.13;;;1.90;;
9140;SDS011;46330;50.822;7.126;2024-02-26T03:59:35;3.50;;;2.55;;
9140;SDS011;46330;50.822;7.126;2024-02-26T04:02:03;3.20;;;2.33;;
9140;SDS011;46330;50.822;7.126;2024-02-26T04:04:34;3.40;;;2.25;;
9140;SDS011;46330;50.822;7.126;2024-02-26T04:07:03;5.20;;;2.88;;
9140;SDS011;46330;50.822;7.126;2024-02-26T04:09:31;4.93;;;3.00;;
9140;SDS011;46330;50.822;7.126;2024-02-26T04:11:59;4.65;;;2.50;;
9140;SDS011;46330;50.822;7.126;2024-02-26T04:14:27;3.50;;;2.15;;
9140;SDS011;46330;50.822;7.126;2024-02-26T04:16:55;4.82;;;2.53;;
9140;SDS011;46330;50.822;7.126;2024-02-26T04:19:23;3.72;;;2.08;;
9140;SDS011;46330;50.822;7.126;2024-02-26T04:21:53;4.00;;;2.08;;
9140;SDS011;46330;50.822;7.126;2024-02-26T04:24:21;2.42;;;1.60;;
9140;SDS011;46330;50.822;7.126;2024-02-26T04:26:49;2.30;;;1.67;;
9140;SDS011;46330;50.822;7.126;2024-02-26T04:29:17;3.45;;;2.25;;
9140;SDS011;46330;50.822;7.126;2024-02-26T04:31:45;6.55;;;2.08;;
9140;SDS011;46330;50.822;7.126;2024-02-26T04:34:14;6.30;;;2.55;;
9140;SDS011;46330;50.822;7.126;2024-02-26T04:36:42;6.03;;;3.10;;
9140;SDS011;46330;50.822;7.126;2024-02-26T04:39:11;5.03;;;2.90;;
9140;SDS011;46330;50.822;7.126;2024-02-26T04:41:39;6.22;;;3.50;;
9140;SDS011;46330;50.822;7.126;2024-02-26T04:44:07;4.85;;;2.97;;
9140;SDS011;46330;50.822;7.126;2024-02-26T04:46:35;3.63;;;2.42;;
9140;SDS011;46330;50.822;7.126;2024-02-26T04:49:03;3.85;;;2.55;;
9140;SDS011;46330;50.822;7.126;2024-02-26T04:51:31;3.75;;;2.15;;
9140;SDS011;46330;50.822;7.126;2024-02-26T04:53:59;3.17;;;2.00;;
9140;SDS011;46330;50.822;7.126;2024-02-26T04:56:28;3.45;;;1.52;;
9140;SDS011;46330;50.822;7.126;2024-02-26T04:58:56;2.60;;;1.40;;
9140;SDS011;46330;50.822;7.126;2024-02-26T05:06:47;4.18;;;1.20;;
9140;SDS011;46330;50.822;7.126;2024-02-26T05:09:15;2.15;;;1.33;;
9140;SDS011;46330;50.822;7.126;2024-02-26T05:11:44;2.38;;;1.20;;
9140;SDS011;46330;50.822;7.126;2024-02-26T05:14:12;3.75;;;1.30;;
9140;SDS011;46330;50.822;7.126;2024-02-26T05:16:40;1.70;;;1.10;;
9140;SDS011;46330;50.822;7.126;2024-02-26T05:19:08;2.50;;;1.10;;
9140;SDS011;46330;50.822;7.126;2024-02-26T05:21:36;1.95;;;0.90;;
9140;SDS011;46330;50.822;7.126;2024-02-26T05:24:04;1.63;;;1.27;;
9140;SDS011;46330;50.822;7.126;2024-02-26T05:26:32;1.75;;;1.02;;
9140;SDS011;46330;50.822;7.126;2024-02-26T05:29:02;2.60;;;1.40;;
9140;SDS011;46330;50.822;7.126;2024-02-26T05:31:30;4.30;;;1.38;;
9140;SDS011;46330;50.822;7.126;2024-02-26T05:33:58;4.15;;;1.13;;
9140;SDS011;46330;50.822;7.126;2024-02-26T05:36:27;1.23;;;1.08;;
9140;SDS011;46330;50.822;7.126;2024-02-26T05:38:59;2.25;;;1.23;;
9140;SDS011;46330;50.822;7.126;2024-02-26T05:41:27;1.38;;;1.20;;
9140;SDS011;46330;50.822;7.126;2024-02-26T05:43:55;1.30;;;1.20;;
9140;SDS011;46330;50.822;7.126;2024-02-26T05:46:25;1.02;;;0.80;;
9140;SDS011;46330;50.822;7.126;2024-02-26T05:48:53;1.52;;;1.25;;
9140;SDS011;46330;50.822;7.126;2024-02-26T05:51:22;1.70;;;1.20;;
9140;SDS011;46330;50.822;7.126;2024-02-26T05:53:50;2.83;;;1.40;;
9140;SDS011;46330;50.822;7.126;2024-02-26T05:56:21;1.67;;;1.05;;
9140;SDS011;46330;50.822;7.126;2024-02-26T05:58:50;2.65;;;1.30;;
9140;SDS011;46330;50.822;7.126;2024-02-26T06:01:19;1.90;;;1.25;;
9140;SDS011;46330;50.822;7.126;2024-02-26T06:03:49;1.90;;;1.40;;
9140;SDS011;46330;50.822;7.126;2024-02-26T06:06:17;1.80;;;1.40;;
9140;SDS011;46330;50.822;7.126;2024-02-26T06:08:45;1.33;;;1.23;;
9140;SDS011;46330;50.822;7.126;2024-02-26T06:11:13;1.50;;;1.40;;
9140;SDS011;46330;50.822;7.126;2024-02-26T06:13:41;3.15;;;1.50;;
9140;SDS011;46330;50.822;7.126;2024-02-26T06:16:09;2.13;;;1.50;;
9140;SDS011;46330;50.822;7.126;2024-02-26T06:18:37;2.20;;;1.25;;
9140;SDS011;46330;50.822;7.126;2024-02-26T06:21:10;3.30;;;1.30;;
9140;SDS011;46330;50.822;7.126;2024-02-26T06:23:38;1.83;;;1.45;;
9140;SDS011;46330;50.822;7.126;2024-02-26T06:26:07;1.48;;;1.25;;
9140;SDS011;46330;50.822;7.126;2024-02-26T06:28:36;1.77;;;1.30;;
9140;SDS011;46330;50.822;7.126;2024-02-26T06:31:07;2.05;;;1.48;;
9140;SDS011;46330;50.822;7.126;2024-02-26T06:33:35;3.25;;;1.60;;
9140;SDS011;46330;50.822;7.126;2024-02-26T06:36:03;4.30;;;2.08;;
9140;SDS011;46330;50.822;7.126;2024-02-26T06:38:33;5.93;;;2.47;;
9140;SDS011;46330;50.822;7.126;2024-02-26T06:41:01;4.30;;;1.98;;
9140;SDS011;46330;50.822;7.126;2024-02-26T06:43:29;3.38;;;2.20;;
9140;SDS011;46330;50.822;7.126;2024-02-26T06:45:57;2.60;;;1.48;;
9140;SDS011;46330;50.822;7.126;2024-02-26T06:48:25;1.30;;;0.95;;
9140;SDS011;46330;50.822;7.126;2024-02-26T06:50:53;2.33;;;1.63;;
9140;SDS011;46330;50.822;7.126;2024-02-26T06:53:21;1.83;;;1.60;;
9140;SDS011;46330;50.822;7.126;2024-02-26T06:55:51;3.53;;;1.90;;
9140;SDS011;46330;50.822;7.126;2024-02-26T06:58:19;3.08;;;1.88;;
9140;SDS011;46330;50.822;7.126;2024-02-26T07:00:46;2.97;;;1.83;;
9140;SDS011;46330;50.822;7.126;2024-02-26T07:03:15;3.13;;;2.03;;
9140;SDS011;46330;50.822;7.126;2024-02-26T07:05:43;4.70;;;1.80;;
9140;SDS011;46330;50.822;7.126;2024-02-26T07:08:11;4.43;;;2.00;;
9140;SDS011;46330;50.822;7.126;2024-02-26T07:10:39;1.55;;;1.35;;
9140;SDS011;46330;50.822;7.126;2024-02-26T07:13:08;3.40;;;1.92;;
9140;SDS011;46330;50.822;7.126;2024-02-26T07:15:37;4.65;;;1.70;;
9140;SDS011;46330;50.822;7.126;2024-02-26T07:18:05;2.00;;;1.52;;
9140;SDS011;46330;50.822;7.126;2024-02-26T07:20:33;3.72;;;2.15;;
9140;SDS011;46330;50.822;7.126;2024-02-26T07:23:01;3.90;;;2.03;;
9140;SDS011;46330;50.822;7.126;2024-02-26T07:25:29;4.00;;;2.17;;
9140;SDS011;46330;50.822;7.126;2024-02-26T07:27:57;6.13;;;3.17;;
9140;SDS011;46330;50.822;7.126;2024-02-26T07:30:26;4.28;;;2.60;;
9140;SDS011;46330;50.822;7.126;2024-02-26T07:32:54;5.28;;;2.63;;
9140;SDS011;46330;50.822;7.126;2024-02-26T07:35:23;3.53;;;2.50;;
9140;SDS011;46330;50.822;7.126;2024-02-26T07:37:51;4.25;;;2.40;;
9140;SDS011;46330;50.822;7.126;2024-02-26T07:40:19;3.20;;;2.30;;
9140;SDS011;46330;50.822;7.126;2024-02-26T07:42:47;3.38;;;2.25;;
9140;SDS011;46330;50.822;7.126;2024-02-26T07:45:15;4.75;;;2.20;;
9140;SDS011;46330;50.822;7.126;2024-02-26T07:47:47;3.47;;;2.08;;
9140;SDS011;46330;50.822;7.126;2024-02-26T07:50:17;5.00;;;2.05;;
9140;SDS011;46330;50.822;7.126;2024-02-26T07:52:46;2.85;;;1.90;;
9140;SDS011;46330;50.822;7.126;2024-02-26T07:55:14;4.47;;;2.50;;
9140;SDS011;46330;50.822;7.126;2024-02-26T07:57:42;2.13;;;1.85;;
9140;SDS011;46330;50.822;7.126;2024-02-26T08:00:10;3.42;;;2.05;;
9140;SDS011;46330;50.822;7.126;2024-02-26T08:02:43;3.67;;;2.00;;
9140;SDS011;46330;50.822;7.126;2024-02-26T08:05:12;4.82;;;2.40;;
9140;SDS011;46330;50.822;7.126;2024-02-26T08:07:40;3.08;;;2.03;;
9140;SDS011;46330;50.822;7.126;2024-02-26T08:10:08;3.45;;;2.40;;
9140;SDS011;46330;50.822;7.126;2024-02-26T08:12:37;4.15;;;2.67;;
9140;SDS011;46330;50.822;7.126;2024-02-26T08:15:05;6.82;;;2.08;;
9140;SDS011;46330;50.822;7.126;2024-02-26T08:17:35;3.95;;;2.13;;
9140;SDS011;46330;50.822;7.126;2024-02-26T08:20:03;4.22;;;2.25;;
9140;SDS011;46330;50.822;7.126;2024-02-26T08:22:33;3.10;;;2.25;;
9140;SDS011;46330;50.822;7.126;2024-02-26T08:25:01;4.63;;;2.65;;
9140;SDS011;46330;50.822;7.126;2024-02-26T08:27:33;4.70;;;2.80;;
9140;SDS011;46330;50.822;7.126;2024-02-26T08:30:01;3.83;;;2.60;;
9140;SDS011;46330;50.822;7.126;2024-02-26T08:32:29;3.40;;;2.00;;
9140;SDS011;46330;50.822;7.126;2024-02-26T08:34:57;1.38;;;1.27;;
9140;SDS011;46330;50.822;7.126;2024-02-26T08:37:25;3.92;;;1.88;;
9140;SDS011;46330;50.822;7.126;2024-02-26T08:39:54;2.42;;;1.55;;
9140;SDS011;46330;50.822;7.126;2024-02-26T08:42:22;3.60;;;1.75;;
9140;SDS011;46330;50.822;7.126;2024-02-26T08:44:50;2.20;;;1.70;;
9140;SDS011;46330;50.822;7.126;2024-02-26T08:47:21;4.95;;;2.00;;
9140;SDS011;46330;50.822;7.126;2024-02-26T08:49:49;6.50;;;2.70;;
9140;SDS011;46330;50.822;7.126;2024-02-26T08:52:17;3.97;;;2.33;;
9140;SDS011;46330;50.822;7.126;2024-02-26T08:54:45;3.22;;;1.83;;
9140;SDS011;46330;50.822;7.126;2024-02-26T08:57:14;4.13;;;1.77;;
9140;SDS011;46330;50.822;7.126;2024-02-26T08:59:42;2.35;;;1.80;;
9140;SDS011;46330;50.822;7.126;2024-02-26T09:02:10;3.70;;;2.03;;
9140;SDS011;46330;50.822;7.126;2024-02-26T09:04:38;4.43;;;2.50;;
9140;SDS011;46330;50.822;7.126;2024-02-26T09:07:05;4.10;;;2.72;;
9140;SDS011;46330;50.822;7.126;2024-02-26T09:09:33;4.20;;;2.42;;
9140;SDS011;46330;50.822;7.126;2024-02-26T09:12:02;3.65;;;2.13;;
9140;SDS011;46330;50.822;7.126;2024-02-26T09:14:32;4.75;;;2.80;;
9140;SDS011;46330;50.822;7.126;2024-02-26T09:17:00;7.00;;;3.22;;
9140;SDS011;46330;50.822;7.126;2024-02-26T09:19:28;4.85;;;2.95;;
9140;SDS011;46330;50.822;7.126;2024-02-26T09:21:56;6.95;;;3.60;;
9140;SDS011;46330;50.822;7.126;2024-02-26T09:24:24;4.82;;;2.90;;
9140;SDS011;46330;50.822;7.126;2024-02-26T09:26:53;4.57;;;3.05;;
9140;SDS011;46330;50.822;7.126;2024-02-26T09:29:21;4.13;;;3.00;;
9140;SDS011;46330;50.822;7.126;2024-02-26T09:31:50;5.28;;;3.10;;
9140;SDS011;46330;50.822;7.126;2024-02-26T09:34:18;6.60;;;3.53;;
9140;SDS011;46330;50.822;7.126;2024-02-26T09:36:46;5.28;;;2.92;;
9140;SDS011;46330;50.822;7.126;2024-02-26T09:39:15;5.35;;;3.17;;
9140;SDS011;46330;50.822;7.126;2024-02-26T09:41:48;4.00;;;2.38;;
9140;SDS011;46330;50.822;7.126;2024-02-26T09:44:18;1.92;;;1.50;;
9140;SDS011;46330;50.822;7.126;2024-02-26T09:46:47;3.72;;;2.05;;
9140;SDS011;46330;50.822;7.126;2024-02-26T09:49:17;4.57;;;2.70;;
9140;SDS011;46330;50.822;7.126;2024-02-26T09:51:47;3.15;;;1.70;;
9140;SDS011;46330;50.822;7.126;2024-02-26T09:54:17;4.80;;;2.40;;
9140;SDS011;46330;50.822;7.126;2024-02-26T09:56:45;3.47;;;2.35;;
9140;SDS011;46330;50.822;7.126;2024-02-26T09:59:29;4.28;;;2.10;;
9140;SDS011;46330;50.822;7.126;2024-02-26T10:02:05;2.40;;;1.70;;
9140;SDS011;46330;50.822;7.126;2024-02-26T10:04:37;2.85;;;2.40;;
9140;SDS011;46330;50.822;7.126;2024-02-26T10:07:06;4.38;;;2.55;;
9140;SDS011;46330;50.822;7.126;2024-02-26T10:09:38;4.55;;;2.45;;
9140;SDS011;46330;50.822;7.126;2024-02-26T10:12:08;4.10;;;2.30;;
9140;SDS011;46330;50.822;7.126;2024-02-26T10:14:39;6.70;;;2.80;;
9140;SDS011;46330;50.822;7.126;2024-02-26T10:17:07;2.90;;;2.03;;
9140;SDS011;46330;50.822;7.126;2024-02-26T10:19:37;3.78;;;2.00;;
9140;SDS011;46330;50.822;7.126;2024-02-26T10:22:05;2.58;;;1.73;;
9140;SDS011;46330;50.822;7.126;2024-02-26T10:24:33;3.13;;;1.95;;
9140;SDS011;46330;50.822;7.126;2024-02-26T10:27:02;3.38;;;2.10;;
9140;SDS011;46330;50.822;7.126;2024-02-26T10:29:31;2.17;;;1.70;;
9140;SDS011;46330;50.822;7.126;2024-02-26T10:31:58;3.65;;;2.08;;
9140;SDS011;46330;50.822;7.126;2024-02-26T10:34:26;3.42;;;2.08;;
9140;SDS011;46330;50.822;7.126;2024-02-26T10:36:57;5.53;;;1.70;;
9140;SDS011;46330;50.822;7.126;2024-02-26T10:39:25;9.00;;;2.25;;
9140;SDS011;46330;50.822;7.126;2024-02-26T10:41:53;3.30;;;2.00;;
9140;SDS011;46330;50.822;7.126;2024-02-26T10:44:21;3.47;;;2.17;;
9140;SDS011;46330;50.822;7.126;2024-02-26T10:46:49;4.10;;;1.90;;
9140;SDS011;46330;50.822;7.126;2024-02-26T10:49:17;3.22;;;2.00;;
9140;SDS011;46330;50.822;7.126;2024-02-26T10:51:54;2.47;;;1.77;;
9140;SDS011;46330;50.822;7.126;2024-02-26T10:54:26;4.60;;;2.40;;
9140;SDS011;46330;50.822;7.126;2024-02-26T10:56:57;6.45;;;2.00;;
9140;SDS011;46330;50.822;7.126;2024-02-26T10:59:26;5.13;;;2.50;;
9140;SDS011;46330;50.822;7.126;2024-02-26T11:01:54;5.00;;;2.90;;
9140;SDS011;46330;50.822;7.126;2024-02-26T11:04:23;2.53;;;1.90;;
9140;SDS011;46330;50.822;7.126;2024-02-26T11:06:54;5.47;;;2.50;;
9140;SDS011;46330;50.822;7.126;2024-02-26T11:09:26;4.65;;;2.90;;
9140;SDS011;46330;50.822;7.126;2024-02-26T11:11:55;2.63;;;2.10;;
9140;SDS011;46330;50.822;7.126;2024-02-26T11:14:26;2.72;;;1.92;;
9140;SDS011;46330;50.822;7.126;2024-02-26T11:16:57;4.90;;;2.40;;
9140;SDS011;46330;50.822;7.126;2024-02-26T11:19:27;4.25;;;2.60;;
9140;SDS011;46330;50.822;7.126;2024-02-26T11:22:00;5.35;;;2.58;;
9140;SDS011;46330;50.822;7.126;2024-02-26T11:24:45;5.35;;;2.75;;
9140;SDS011;46330;50.822;7.126;2024-02-26T11:27:14;5.32;;;3.22;;
9140;SDS011;46330;50.822;7.126;2024-02-26T11:29:47;4.97;;;2.90;;
9140;SDS011;46330;50.822;7.126;2024-02-26T11:32:19;7.90;;;3.72;;
9140;SDS011;46330;50.822;7.126;2024-02-26T11:34:47;6.05;;;2.95;;
9140;SDS011;46330;50.822;7.126;2024-02-26T11:37:17;6.68;;;3.22;;
9140;SDS011;46330;50.822;7.126;2024-02-26T11:39:46;5.47;;;2.90;;
9140;SDS011;46330;50.822;7.126;2024-02-26T11:42:15;6.18;;;3.55;;
9140;SDS011;46330;50.822;7.126;2024-02-26T11:44:43;4.88;;;3.47;;
9140;SDS011;46330;50.822;7.126;2024-02-26T11:47:12;6.95;;;3.40;;
9140;SDS011;46330;50.822;7.126;2024-02-26T11:49:41;6.35;;;3.38;;
9140;SDS011;46330;50.822;7.126;2024-02-26T11:52:09;4.57;;;3.03;;
9140;SDS011;46330;50.822;7.126;2024-02-26T11:54:38;6.03;;;3.55;;
9140;SDS011;46330;50.822;7.126;2024-02-26T11:57:21;5.22;;;2.97;;
9140;SDS011;46330;50.822;7.126;2024-02-26T11:59:53;5.13;;;2.35;;
9140;SDS011;46330;50.822;7.126;2024-02-26T12:05:24;6.20;;;2.50;;
9140;SDS011;46330;50.822;7.126;2024-02-26T12:07:55;4.15;;;2.38;;
9140;SDS011;46330;50.822;7.126;2024-02-26T12:10:30;4.55;;;2.60;;
9140;SDS011;46330;50.822;7.126;2024-02-26T12:13:04;2.70;;;1.92;;
9140;SDS011;46330;50.822;7.126;2024-02-26T12:15:37;5.35;;;2.67;;
9140;SDS011;46330;50.822;7.126;2024-02-26T12:18:06;4.10;;;2.40;;
9140;SDS011;46330;50.822;7.126;2024-02-26T12:20:37;3.85;;;2.33;;
9140;SDS011;46330;50.822;7.126;2024-02-26T12:23:05;4.82;;;2.58;;
9140;SDS011;46330;50.822;7.126;2024-02-26T12:25:33;4.80;;;2.15;;
9140;SDS011;46330;50.822;7.126;2024-02-26T12:28:01;3.53;;;2.10;;
9140;SDS011;46330;50.822;7.126;2024-02-26T12:30:31;2.70;;;2.08;;
9140;SDS011;46330;50.822;7.126;2024-02-26T12:32:59;3.72;;;2.28;;
9140;SDS011;46330;50.822;7.126;2024-02-26T12:35:29;4.43;;;2.03;;
9140;SDS011;46330;50.822;7.126;2024-02-26T12:37:59;4.18;;;2.03;;
9140;SDS011;46330;50.822;7.126;2024-02-26T12:40:29;3.70;;;2.15;;
9140;SDS011;46330;50.822;7.126;2024-02-26T12:42:57;3.20;;;2.40;;
9140;SDS011;46330;50.822;7.126;2024-02-26T12:45:27;3.97;;;2.40;;
9140;SDS011;46330;50.822;7.126;2024-02-26T12:47:55;3.40;;;1.75;;
9140;SDS011;46330;50.822;7.126;2024-02-26T12:50:23;2.50;;;1.85;;
9140;SDS011;46330;50.822;7.126;2024-02-26T12:52:52;3.75;;;2.20;;
9140;SDS011;46330;50.822;7.126;2024-02-26T12:55:20;4.07;;;2.22;;
9140;SDS011;46330;50.822;7.126;2024-02-26T12:57:48;3.72;;;2.20;;
9140;SDS011;46330;50.822;7.126;2024-02-26T13:00:19;2.80;;;2.10;;
9140;SDS011;46330;50.822;7.126;2024-02-26T13:02:51;3.17;;;1.92;;
9140;SDS011;46330;50.822;7.126;2024-02-26T13:05:22;3.55;;;1.90;;
9140;SDS011;46330;50.822;7.126;2024-02-26T13:07:50;5.38;;;2.42;;
9140;SDS011;46330;50.822;7.126;2024-02-26T13:10:19;3.50;;;2.42;;
9140;SDS011;46330;50.822;7.126;2024-02-26T13:12:49;3.58;;;2.30;;
9140;SDS011;46330;50.822;7.126;2024-02-26T13:15:18;3.35;;;2.40;;
9140;SDS011;46330;50.822;7.126;2024-02-26T13:17:47;3.55;;;2.33;;
9140;SDS011;46330;50.822;7.126;2024-02-26T13:20:26;4.97;;;2.38;;
9140;SDS011;46330;50.822;7.126;2024-02-26T13:23:05;5.15;;;2.50;;
9140;SDS011;46330;50.822;7.126;2024-02-26T13:25:34;2.67;;;1.92;;
9140;SDS011;46330;50.822;7.126;2024-02-26T13:28:09;3.40;;;2.38;;
9140;SDS011;46330;50.822;7.126;2024-02-26T13:30:40;5.55;;;2.60;;
9140;SDS011;46330;50.822;7.126;2024-02-26T13:33:08;4.78;;;2.58;;
9140;SDS011;46330;50.822;7.126;2024-02-26T13:35:39;5.10;;;2.40;;
9140;SDS011;46330;50.822;7.126;2024-02-26T13:38:07;4.97;;;2.47;;
9140;SDS011;46330;50.822;7.126;2024-02-26T13:40:35;3.88;;;2.20;;
9140;SDS011;46330;50.822;7.126;2024-02-26T13:43:03;3.17;;;2.30;;
9140;SDS011;46330;50.822;7.126;2024-02-26T13:45:33;5.20;;;2.30;;
9140;SDS011;46330;50.822;7.126;2024-02-26T13:48:05;4.70;;;2.58;;
9140;SDS011;46330;50.822;7.126;2024-02-26T13:50:36;3.38;;;2.45;;
9140;SDS011;46330;50.822;7.126;2024-02-26T13:53:06;4.53;;;2.47;;
9140;SDS011;46330;50.822;7.126;2024-02-26T13:55:34;4.78;;;2.60;;
9140;SDS011;46330;50.822;7.126;2024-02-26T13:58:02;4.90;;;2.45;;
9140;SDS011;46330;50.822;7.126;2024-02-26T14:00:31;4.50;;;2.58;;
9140;SDS011;46330;50.822;7.126;2024-02-26T14:03:00;5.35;;;2.55;;
9140;SDS011;46330;50.822;7.126;2024-02-26T14:05:29;3.85;;;2.53;;
9140;SDS011;46330;50.822;7.126;2024-02-26T14:07:59;5.28;;;2.95;;
9140;SDS011;46330;50.822;7.126;2024-02-26T14:10:27;4.30;;;2.70;;
9140;SDS011;46330;50.822;7.126;2024-02-26T14:12:56;4.65;;;2.65;;
9140;SDS011;46330;50.822;7.126;2024-02-26T14:15:24;4.55;;;2.70;;
9140;SDS011;46330;50.822;7.126;2024-02-26T14:17:52;3.97;;;2.55;;
9140;SDS011;46330;50.822;7.126;2024-02-26T14:20:23;4.35;;;2.80;;
9140;SDS011;46330;50.822;7.126;2024-02-26T14:22:51;4.47;;;2.58;;
9140;SDS011;46330;50.822;7.126;2024-02-26T14:25:22;5.78;;;3.50;;
9140;SDS011;46330;50.822;7.126;2024-02-26T14:27:54;3.88;;;2.40;;
9140;SDS011;46330;50.822;7.126;2024-02-26T14:30:24;4.88;;;3.00;;
9140;SDS011;46330;50.822;7.126;2024-02-26T14:32:53;4.38;;;2.90;;
9140;SDS011;46330;50.822;7.126;2024-02-26T14:35:21;5.25;;;2.97;;
9140;SDS011;46330;50.822;7.126;2024-02-26T14:37:49;4.18;;;2.90;;
9140;SDS011;46330;50.822;7.126;2024-02-26T14:40:18;4.20;;;3.00;;
9140;SDS011;46330;50.822;7.126;2024-02-26T14:42:47;7.70;;;4.75;;
9140;SDS011;46330;50.822;7.126;2024-02-26T14:45:15;6.30;;;3.53;;
9140;SDS011;46330;50.822;7.126;2024-02-26T14:47:44;5.47;;;3.20;;
9140;SDS011;46330;50.822;7.126;2024-02-26T14:50:12;5.45;;;3.15;;
9140;SDS011;46330;50.822;7.126;2024-02-26T14:52:40;6.03;;;3.22;;
9140;SDS011;46330;50.822;7.126;2024-02-26T14:55:08;5.28;;;3.08;;
9140;SDS011;46330;50.822;7.126;2024-02-26T14:57:36;6.00;;;3.38;;
9140;SDS011;46330;50.822;7.126;2024-02-26T15:00:06;5.72;;;3.00;;
9140;SDS011;46330;50.822;7.126;2024-02-26T15:02:36;6.47;;;3.25;;
9140;SDS011;46330;50.822;7.126;2024-02-26T15:05:05;5.97;;;3.47;;
9140;SDS011;46330;50.822;7.126;2024-02-26T15:07:34;5.10;;;3.42;;
9140;SDS011;46330;50.822;7.126;2024-02-26T15:10:04;8.20;;;3.47;;
9140;SDS011;46330;50.822;7.126;2024-02-26T15:12:32;5.13;;;3.40;;
9140;SDS011;46330;50.822;7.126;2024-02-26T15:15:00;5.93;;;3.38;;
9140;SDS011;46330;50.822;7.126;2024-02-26T15:17:30;6.43;;;3.70;;
9140;SDS011;46330;50.822;7.126;2024-02-26T15:20:00;6.05;;;3.65;;